Time;durP1;ratioP1;P1;durP2;ratioP2;P2;SDS_P1;SDS_P2;PMS_P1;PMS_P2;Temp;Humidity;BMP_temperature;BMP_pressure;BME280_temperature;BME280_humidity;BME280_pressure;Samples;Min_cycle;Max_cycle;Signal;HPM_P1;HPM_P2
2023/06/27 00:01:39;;;;;;;9.93;3.42;;;;;;;16.28;69.09;101953.44;5028774;28;20104;-63
2023/06/27 00:04:08;;;;;;;8.27;3.40;;;;;;;16.23;68.78;101964.72;5021627;28;20025;-63
2023/06/27 00:06:40;;;;;;;6.30;3.45;;;;;;;16.24;68.98;101963.72;5023712;28;20080;-63
2023/06/27 00:09:09;;;;;;;9.38;3.55;;;;;;;16.31;68.92;101958.44;5023686;28;20025;-63
2023/06/27 00:11:34;;;;;;;17.17;3.90;;;;;;;16.34;69.11;101958.09;5020572;28;20112;-63
2023/06/27 00:14:00;;;;;;;11.48;3.45;;;;;;;16.26;69.38;101959.00;5021274;28;20128;-63
2023/06/27 00:16:32;;;;;;;7.85;3.40;;;;;;;16.35;69.46;101957.06;5028500;28;20025;-63
2023/06/27 00:19:03;;;;;;;6.30;3.10;;;;;;;16.37;70.05;101960.41;5021564;28;20112;-63
2023/06/27 00:21:32;;;;;;;6.45;3.00;;;;;;;16.40;70.26;101966.22;5018789;28;20064;-63
2023/06/27 00:23:59;;;;;;;11.65;3.88;;;;;;;16.35;69.80;101957.91;5024348;28;20017;-63
2023/06/27 00:26:25;;;;;;;8.88;3.42;;;;;;;16.34;69.57;101956.25;5026041;28;20376;-63
2023/06/27 00:28:50;;;;;;;10.35;3.40;;;;;;;16.28;69.91;101962.34;5023566;28;20040;-63
2023/06/27 00:31:15;;;;;;;9.57;3.72;;;;;;;16.32;69.44;101960.94;5026712;28;20049;-63
2023/06/27 00:33:40;;;;;;;12.80;3.70;;;;;;;16.30;69.26;101954.09;5024700;28;20553;-63
2023/06/27 00:36:06;;;;;;;12.77;3.65;;;;;;;16.23;69.51;101962.03;5022095;28;20031;-63
2023/06/27 00:38:31;;;;;;;8.10;3.50;;;;;;;16.17;69.61;101960.06;5021703;28;20048;-63
2023/06/27 00:40:57;;;;;;;12.00;3.70;;;;;;;16.09;69.95;101955.59;5024543;28;20033;-62
2023/06/27 00:43:23;;;;;;;11.88;4.72;;;;;;;16.08;70.28;101959.28;5028850;28;20410;-63
2023/06/27 00:45:49;;;;;;;10.25;3.53;;;;;;;16.04;69.91;101951.81;5028180;28;20025;-63
2023/06/27 00:48:14;;;;;;;10.85;4.15;;;;;;;15.97;70.10;101957.06;5027714;28;20112;-63
2023/06/27 00:50:40;;;;;;;9.25;4.30;;;;;;;15.93;70.19;101961.09;5019937;28;20044;-63
2023/06/27 00:53:05;;;;;;;9.80;4.00;;;;;;;15.91;70.84;101962.28;5022950;28;20053;-63
2023/06/27 00:55:32;;;;;;;11.27;3.53;;;;;;;15.90;70.92;101965.94;5024103;28;20021;-63
2023/06/27 00:57:58;;;;;;;13.02;4.50;;;;;;;15.89;71.30;101959.75;5023561;28;20029;-63
2023/06/27 01:00:23;;;;;;;9.25;3.97;;;;;;;15.90;71.30;101963.28;5021545;28;20036;-63
2023/06/27 01:02:49;;;;;;;13.23;4.28;;;;;;;15.86;71.47;101964.66;5022937;28;20545;-63
2023/06/27 01:05:16;;;;;;;9.63;4.05;;;;;;;15.80;71.48;101967.03;5022139;28;20550;-63
2023/06/27 01:07:57;;;;;;;10.00;3.92;;;;;;;15.75;71.83;101963.22;5022352;28;20100;-63
2023/06/27 01:10:35;;;;;;;11.82;3.72;;;;;;;15.72;71.96;101956.38;5021528;28;20360;-63
2023/06/27 01:13:29;;;;;;;11.73;4.20;;;;;;;15.74;72.13;101964.22;5019757;28;20037;-63
2023/06/27 01:15:56;;;;;;;9.93;3.80;;;;;;;15.69;72.43;101963.94;5020689;28;20426;-63
2023/06/27 01:18:23;;;;;;;10.82;4.55;;;;;;;15.67;72.20;101960.59;5023284;28;20104;-63
2023/06/27 01:20:49;;;;;;;11.10;4.70;;;;;;;15.68;72.34;101960.41;5026149;28;20071;-63
2023/06/27 01:23:21;;;;;;;11.57;4.32;;;;;;;15.67;72.51;101955.25;5025251;28;20049;-63
2023/06/27 01:25:49;;;;;;;11.65;4.05;;;;;;;15.69;72.82;101964.75;5025057;28;20021;-63
2023/06/27 01:28:14;;;;;;;14.38;4.38;;;;;;;15.70;73.00;101963.75;5018602;28;20034;-63
2023/06/27 01:30:41;;;;;;;13.38;4.38;;;;;;;15.69;73.07;101964.75;5025197;28;20037;-63
2023/06/27 01:33:41;;;;;;;13.55;4.18;;;;;;;15.70;73.21;101960.25;5024662;28;20490;-63
2023/06/27 01:36:17;;;;;;;10.73;4.28;;;;;;;15.68;73.08;101963.09;5018765;28;20029;-63
2023/06/27 01:38:56;;;;;;;11.52;4.13;;;;;;;15.64;73.39;101955.59;5025670;28;20056;-63
2023/06/27 01:41:26;;;;;;;12.40;4.72;;;;;;;15.57;73.32;101955.41;5021132;28;20056;-63
2023/06/27 01:43:54;;;;;;;13.43;4.47;;;;;;;15.53;73.21;101948.75;5021425;28;20017;-63
2023/06/27 01:46:21;;;;;;;18.38;4.82;;;;;;;15.42;73.60;101960.69;5024932;28;20128;-63
2023/06/27 01:48:48;;;;;;;13.77;4.90;;;;;;;15.47;74.13;101949.47;5024790;28;20495;-63
2023/06/27 01:51:14;;;;;;;11.45;4.60;;;;;;;15.40;74.05;101949.31;5024662;28;20079;-63
2023/06/27 01:53:39;;;;;;;13.25;4.90;;;;;;;15.38;74.06;101950.53;5026826;28;20045;-63
2023/06/27 01:56:06;;;;;;;14.80;4.90;;;;;;;15.35;74.65;101946.34;5020076;28;20127;-63
2023/06/27 01:58:32;;;;;;;12.77;5.07;;;;;;;15.33;74.55;101950.22;5023535;28;20033;-62
2023/06/27 02:00:57;;;;;;;11.82;4.82;;;;;;;15.27;74.92;101948.22;5016204;28;20396;-62
2023/06/27 02:03:22;;;;;;;12.43;4.60;;;;;;;15.26;75.04;101949.22;5019236;28;20112;-63
2023/06/27 02:05:48;;;;;;;15.98;5.22;;;;;;;15.24;75.66;101954.75;5027627;28;20128;-63
2023/06/27 02:08:13;;;;;;;14.43;5.10;;;;;;;15.24;75.71;101946.72;5025482;28;20495;-63
2023/06/27 02:10:38;;;;;;;12.68;4.50;;;;;;;15.24;75.71;101948.56;5025245;28;20064;-63
2023/06/27 02:13:06;;;;;;;15.73;5.60;;;;;;;15.25;76.10;101942.19;5026677;28;20040;-63
2023/06/27 02:15:31;;;;;;;15.23;5.05;;;;;;;15.26;76.04;101938.50;5024074;28;20538;-63
2023/06/27 02:17:57;;;;;;;15.70;5.25;;;;;;;15.30;76.33;101942.50;5026540;28;20108;-63
2023/06/27 02:20:23;;;;;;;13.52;4.80;;;;;;;15.32;76.50;101946.66;5026804;28;20104;-63
2023/06/27 02:22:48;;;;;;;13.23;5.43;;;;;;;15.33;76.22;101947.53;5023896;28;20105;-63
2023/06/27 02:25:13;;;;;;;11.90;4.95;;;;;;;15.30;76.41;101937.16;5022471;28;20533;-63
2023/06/27 02:27:39;;;;;;;18.83;5.30;;;;;;;15.28;76.41;101939.16;5019328;28;20032;-63
2023/06/27 02:30:05;;;;;;;13.77;4.97;;;;;;;15.24;76.99;101941.38;5027036;28;20025;-63
2023/06/27 02:32:30;;;;;;;18.20;5.28;;;;;;;15.22;76.83;101935.34;5024202;28;20054;-63
2023/06/27 02:34:55;;;;;;;11.07;4.82;;;;;;;15.21;77.08;101933.69;5027183;28;20068;-63
2023/06/27 02:37:20;;;;;;;14.35;5.10;;;;;;;15.18;76.80;101940.22;5024939;28;20050;-63
2023/06/27 02:39:46;;;;;;;18.45;5.80;;;;;;;15.16;77.17;101936.06;5016930;28;20033;-63
2023/06/27 02:42:11;;;;;;;13.50;5.05;;;;;;;15.15;77.28;101923.69;5020282;28;20456;-63
2023/06/27 02:44:36;;;;;;;16.23;5.68;;;;;;;15.12;77.24;101935.56;5020999;28;20739;-63
2023/06/27 02:47:02;;;;;;;12.35;4.78;;;;;;;15.13;77.69;101937.25;5014186;28;20033;-63
2023/06/27 02:49:27;;;;;;;14.05;4.80;;;;;;;15.12;77.42;101935.56;5019796;28;20075;-63
2023/06/27 02:51:52;;;;;;;13.48;5.15;;;;;;;15.08;77.73;101934.25;5014365;28;20029;-63
2023/06/27 02:54:17;;;;;;;15.05;5.32;;;;;;;15.05;77.84;101929.25;5021216;28;20037;-63
2023/06/27 02:56:43;;;;;;;13.98;5.35;;;;;;;15.01;77.91;101930.59;5021603;28;20037;-63
2023/06/27 02:59:08;;;;;;;16.20;5.45;;;;;;;15.01;78.04;101943.97;5015644;28;20038;-63
2023/06/27 03:01:33;;;;;;;13.05;4.85;;;;;;;14.99;78.23;101937.94;5019547;28;20618;-63
2023/06/27 03:03:58;;;;;;;18.77;5.72;;;;;;;14.95;78.08;101941.97;5025536;28;20033;-63
2023/06/27 03:06:24;;;;;;;15.40;5.43;;;;;;;14.97;78.52;101934.63;5023051;28;20037;-63
2023/06/27 03:08:49;;;;;;;12.30;5.20;;;;;;;14.96;78.53;101938.28;5024410;28;20029;-63
2023/06/27 03:11:15;;;;;;;16.38;5.25;;;;;;;14.93;78.54;101943.16;5023465;28;20057;-63
2023/06/27 03:13:40;;;;;;;12.30;5.13;;;;;;;14.92;78.92;101945.00;5017986;28;20033;-63
2023/06/27 03:16:05;;;;;;;13.77;5.28;;;;;;;14.94;79.05;101945.66;5021698;28;20026;-63
2023/06/27 03:18:31;;;;;;;15.15;5.50;;;;;;;14.91;79.02;101948.69;5019629;28;20398;-63
2023/06/27 03:20:56;;;;;;;16.55;5.68;;;;;;;14.88;79.12;101947.19;5026621;28;20025;-63
2023/06/27 03:23:21;;;;;;;13.65;5.47;;;;;;;14.88;79.33;101949.03;5023432;28;20029;-63
2023/06/27 03:25:47;;;;;;;14.15;5.18;;;;;;;14.88;79.27;101949.03;5023118;28;20021;-62
2023/06/27 03:28:12;;;;;;;13.63;5.50;;;;;;;14.85;79.50;101949.38;5025229;28;20487;-63
2023/06/27 03:30:43;;;;;;;13.90;5.93;;;;;;;14.83;79.44;101946.03;5030512;28;20025;-63
2023/06/27 03:33:08;;;;;;;17.10;4.88;;;;;;;14.83;79.65;101952.22;5027880;28;20505;-63
2023/06/27 03:35:33;;;;;;;14.02;5.35;;;;;;;14.78;79.81;101945.72;5022869;28;20059;-62
2023/06/27 03:37:59;;;;;;;14.25;5.35;;;;;;;14.78;79.89;101948.41;5033987;28;20421;-63
2023/06/27 03:40:24;;;;;;;13.38;5.30;;;;;;;14.75;79.88;101946.91;5027124;28;20029;-63
2023/06/27 03:42:49;;;;;;;14.13;5.25;;;;;;;14.70;80.30;101940.38;5025851;28;20013;-63
2023/06/27 03:45:15;;;;;;;15.45;5.50;;;;;;;14.68;80.21;101939.72;5029153;28;20029;-63
2023/06/27 03:47:40;;;;;;;14.75;5.88;;;;;;;14.67;80.48;101940.72;5023563;28;20036;-63
2023/06/27 03:50:05;;;;;;;15.77;5.47;;;;;;;14.66;80.67;101949.75;5028109;28;20031;-63
2023/06/27 03:52:31;;;;;;;18.05;5.70;;;;;;;14.66;80.54;101947.06;5030746;28;20383;-62
2023/06/27 03:54:56;;;;;;;12.38;5.07;;;;;;;14.65;80.66;101954.25;5028781;28;20099;-63
2023/06/27 03:57:21;;;;;;;13.00;5.55;;;;;;;14.64;81.13;101952.59;5021415;28;20033;-63
2023/06/27 03:59:46;;;;;;;17.90;5.78;;;;;;;14.63;81.12;101953.59;5026606;28;20044;-63
2023/06/27 04:02:12;;;;;;;14.93;5.50;;;;;;;14.61;81.47;101944.91;5020339;28;20103;-63
2023/06/27 04:04:37;;;;;;;14.27;5.43;;;;;;;14.59;81.05;101943.41;5024780;28;20063;-62
2023/06/27 04:07:02;;;;;;;15.88;5.40;;;;;;;14.56;81.54;101940.06;5024598;28;20550;-63
2023/06/27 04:09:28;;;;;;;17.75;5.65;;;;;;;14.59;81.70;101943.41;5020562;28;20102;-62
2023/06/27 04:11:53;;;;;;;15.52;5.70;;;;;;;14.57;82.05;101949.75;5023486;28;20112;-63
2023/06/27 04:14:18;;;;;;;14.43;5.72;;;;;;;14.60;81.84;101955.78;5028178;28;20462;-63
2023/06/27 04:16:44;;;;;;;12.57;5.53;;;;;;;14.57;82.02;101947.09;5030134;28;20116;-62
2023/06/27 04:19:10;;;;;;;18.20;5.90;;;;;;;14.59;82.00;101954.09;5026817;28;20506;-63
2023/06/27 04:21:35;;;;;;;15.00;5.65;;;;;;;14.60;82.19;101951.25;5025023;28;20084;-63
2023/06/27 04:24:00;;;;;;;15.55;5.80;;;;;;;14.61;82.16;101957.44;5024964;28;20044;-63
2023/06/27 04:26:26;;;;;;;17.33;5.55;;;;;;;14.61;82.52;101949.41;5028754;28;20376;-63
2023/06/27 04:28:51;;;;;;;17.98;6.03;;;;;;;14.60;82.34;101953.09;5026561;28;20024;-63
2023/06/27 04:31:16;;;;;;;14.43;6.13;;;;;;;14.61;82.63;101957.44;5027001;28;20041;-62
2023/06/27 04:33:41;;;;;;;18.13;6.18;;;;;;;14.60;82.32;101961.13;5031609;28;20029;-63
2023/06/27 04:36:10;;;;;;;22.00;5.82;;;;;;;14.57;82.58;101960.47;5027200;28;20014;-63
2023/06/27 04:38:37;;;;;;;18.58;6.05;;;;;;;14.57;82.97;101960.47;5022686;28;20053;-63
2023/06/27 04:41:04;;;;;;;14.95;5.50;;;;;;;14.59;82.74;101964.81;5023988;28;20048;-63
2023/06/27 04:43:29;;;;;;;14.35;5.82;;;;;;;14.59;82.88;101964.81;5028003;28;20025;-62
2023/06/27 04:45:55;;;;;;;15.95;6.05;;;;;;;14.60;82.91;101963.78;5024602;28;20026;-62
2023/06/27 04:48:20;;;;;;;14.60;5.70;;;;;;;14.60;83.01;101963.78;5021825;28;20029;-62
2023/06/27 04:50:45;;;;;;;14.40;5.80;;;;;;;14.58;83.30;101969.31;5021036;28;20025;-63
2023/06/27 04:53:10;;;;;;;16.75;6.35;;;;;;;14.56;83.33;101966.81;5027748;28;20032;-63
2023/06/27 04:55:36;;;;;;;17.35;5.75;;;;;;;14.52;83.47;101965.47;5027916;28;20029;-63
2023/06/27 04:58:01;;;;;;;17.63;6.70;;;;;;;14.52;83.71;101968.16;5030979;28;20056;-62
2023/06/27 05:00:27;;;;;;;17.83;6.68;;;;;;;14.51;84.01;101973.66;5011943;28;20394;-62
2023/06/27 05:02:52;;;;;;;18.50;6.82;;;;;;;14.51;83.90;101971.84;5021242;28;20097;-63
2023/06/27 05:05:18;;;;;;;21.55;7.05;;;;;;;14.50;84.39;101972.84;5023951;28;20128;-63
2023/06/27 05:07:43;;;;;;;18.02;6.78;;;;;;;14.49;84.41;101973.00;5028113;28;20040;-62
2023/06/27 05:10:08;;;;;;;19.08;7.20;;;;;;;14.47;84.50;101977.69;5024262;28;20032;-63
2023/06/27 05:12:33;;;;;;;15.57;6.88;;;;;;;14.45;84.71;101975.16;5026920;28;20028;-63
2023/06/27 05:14:59;;;;;;;20.20;7.03;;;;;;;14.45;84.62;101979.66;5024777;28;20060;-63
2023/06/27 05:17:24;;;;;;;19.88;7.45;;;;;;;14.47;85.29;101978.53;5017887;28;20038;-63
2023/06/27 05:19:49;;;;;;;15.30;7.65;;;;;;;14.53;85.58;101977.00;5026003;28;20612;-63
2023/06/27 05:22:14;;;;;;;20.83;8.00;;;;;;;14.57;86.02;101978.34;5023682;28;20036;-62
2023/06/27 05:24:40;;;;;;;18.58;8.00;;;;;;;14.59;86.26;101976.31;5029455;28;20026;-64
2023/06/27 05:27:05;;;;;;;20.70;8.38;;;;;;;14.61;86.75;101968.13;5018462;28;20025;-63
2023/06/27 05:29:30;;;;;;;16.95;8.70;;;;;;;14.67;86.95;101976.31;5024914;28;20033;-62
2023/06/27 05:31:56;;;;;;;23.77;9.13;;;;;;;14.75;87.22;101975.47;5024596;28;20025;-63
2023/06/27 05:34:21;;;;;;;21.00;8.73;;;;;;;14.79;87.78;101977.63;5031643;28;20051;-63
2023/06/27 05:36:46;;;;;;;23.75;8.63;;;;;;;14.89;87.85;101974.78;5022127;28;20026;-62
2023/06/27 05:39:11;;;;;;;20.85;9.30;;;;;;;14.97;88.17;101980.09;5022638;28;20437;-63
2023/06/27 05:41:37;;;;;;;25.85;9.50;;;;;;;15.03;88.23;101971.38;5023994;28;20124;-62
2023/06/27 05:44:02;;;;;;;28.83;9.63;;;;;;;15.13;88.16;101976.53;5021784;28;20060;-63
2023/06/27 05:46:27;;;;;;;20.73;9.10;;;;;;;15.21;88.31;101971.16;5019368;28;20025;-63
2023/06/27 05:48:52;;;;;;;22.17;9.32;;;;;;;15.31;88.60;101968.25;5021429;28;20030;-63
2023/06/27 05:51:18;;;;;;;19.63;8.32;;;;;;;15.39;88.51;101962.88;5023186;28;20026;-63
2023/06/27 05:53:43;;;;;;;22.27;8.52;;;;;;;15.45;88.28;101973.72;5027009;28;20035;-62
2023/06/27 05:56:08;;;;;;;19.65;8.35;;;;;;;15.54;88.07;101963.81;5022271;28;20037;-62
2023/06/27 05:58:37;;;;;;;21.52;8.38;;;;;;;15.62;87.75;101971.00;5022619;28;20037;-63
2023/06/27 06:01:02;;;;;;;24.08;8.05;;;;;;;15.70;87.87;101963.75;5023614;28;20414;-63
2023/06/27 06:03:28;;;;;;;15.88;8.32;;;;;;;15.77;87.81;101963.88;5020398;28;20033;-63
2023/06/27 06:05:53;;;;;;;22.75;8.82;;;;;;;15.84;87.68;101969.34;5021603;28;20049;-62
2023/06/27 06:08:18;;;;;;;19.27;8.25;;;;;;;15.90;87.86;101963.28;5020186;28;20083;-63
2023/06/27 06:10:45;;;;;;;18.92;7.95;;;;;;;16.02;87.87;101975.25;5022111;28;20041;-62
2023/06/27 06:13:10;;;;;;;18.08;7.68;;;;;;;16.08;87.70;101974.53;5025742;28;20035;-63
2023/06/27 06:15:35;;;;;;;16.88;8.27;;;;;;;16.17;87.57;101970.78;5023979;28;20036;-63
2023/06/27 06:18:00;;;;;;;25.30;8.13;;;;;;;16.29;87.25;101972.03;5020230;28;20029;-63
2023/06/27 06:20:26;;;;;;;19.63;8.32;;;;;;;16.35;86.69;101970.47;5025378;28;20612;-63
2023/06/27 06:22:51;;;;;;;26.88;8.20;;;;;;;16.50;86.64;101971.34;5026591;28;20021;-62
2023/06/27 06:25:17;;;;;;;22.85;8.05;;;;;;;16.56;86.71;101973.31;5020192;28;20064;-63
2023/06/27 06:27:42;;;;;;;17.67;7.45;;;;;;;16.64;85.94;101969.69;5023225;28;20037;-62
2023/06/27 06:30:08;;;;;;;16.27;7.75;;;;;;;16.75;85.67;101973.81;5024001;28;20029;-63
2023/06/27 06:32:33;;;;;;;20.23;8.15;;;;;;;16.85;85.71;101979.75;5022683;28;20036;-63
2023/06/27 06:34:59;;;;;;;16.73;7.18;;;;;;;16.91;85.40;101979.84;5022898;28;20057;-63
2023/06/27 06:37:24;;;;;;;18.35;7.38;;;;;;;17.02;84.83;101983.91;5022840;28;20021;-63
2023/06/27 06:39:49;;;;;;;16.10;7.20;;;;;;;17.15;84.05;101984.13;5024318;28;20028;-63
2023/06/27 06:42:14;;;;;;;16.73;6.55;;;;;;;17.26;83.37;101988.16;5028900;28;20041;-62
2023/06/27 06:44:40;;;;;;;16.65;6.47;;;;;;;17.36;83.32;101987.91;5025733;28;20095;-63
2023/06/27 06:47:05;;;;;;;17.50;6.75;;;;;;;17.48;83.02;101991.75;5019838;28;20037;-63
2023/06/27 06:49:30;;;;;;;16.98;5.38;;;;;;;17.56;81.64;101987.09;5020397;28;20540;-63
2023/06/27 06:51:56;;;;;;;13.85;4.53;;;;;;;17.71;80.92;101994.34;5021689;28;20105;-64
2023/06/27 06:54:21;;;;;;;14.18;4.75;;;;;;;17.81;80.10;101995.69;5027695;28;20552;-63
2023/06/27 06:56:49;;;;;;;16.83;4.57;;;;;;;17.90;79.40;101999.09;5026062;28;20025;-63
2023/06/27 06:59:14;;;;;;;13.20;4.25;;;;;;;17.97;77.62;101994.63;5021352;28;20033;-63
2023/06/27 07:01:39;;;;;;;13.40;3.67;;;;;;;18.11;77.42;101990.22;5025937;28;20021;-63
2023/06/27 07:04:04;;;;;;;13.85;3.45;;;;;;;18.26;76.34;101994.50;5023563;28;20487;-63
2023/06/27 07:06:30;;;;;;;9.45;2.63;;;;;;;18.40;74.07;101991.94;5027456;28;20056;-63
2023/06/27 07:08:55;;;;;;;13.60;2.92;;;;;;;18.58;73.30;101992.28;5027674;28;20033;-63
2023/06/27 07:11:20;;;;;;;6.50;2.10;;;;;;;18.71;71.32;101996.97;5027274;28;20079;-63
2023/06/27 07:13:45;;;;;;;7.53;2.40;;;;;;;18.77;70.19;101994.31;5024419;28;20025;-63
2023/06/27 07:16:11;;;;;;;7.63;2.05;;;;;;;18.82;69.15;102001.81;5031576;28;20136;-63
2023/06/27 07:18:36;;;;;;;9.95;2.30;;;;;;;18.79;68.16;102010.25;5036461;28;20497;-63
2023/06/27 07:21:02;;;;;;;13.02;2.38;;;;;;;18.72;68.04;102002.16;5030200;28;20033;-63
2023/06/27 07:23:27;;;;;;;10.40;2.38;;;;;;;18.73;67.99;102011.88;5029032;28;20036;-63
2023/06/27 07:25:52;;;;;;;8.02;2.42;;;;;;;18.79;68.20;101997.66;5028425;28;20104;-63
2023/06/27 07:28:17;;;;;;;10.02;2.28;;;;;;;18.86;66.89;102005.78;5028073;28;20033;-63
2023/06/27 07:30:45;;;;;;;10.10;2.65;;;;;;;18.95;67.00;101999.19;5022801;28;20495;-63
2023/06/27 07:33:12;;;;;;;12.35;3.17;;;;;;;19.03;66.58;101992.81;5017552;28;20033;-63
2023/06/27 07:35:37;;;;;;;8.38;2.58;;;;;;;19.11;66.48;101988.13;5026848;28;20108;-63
2023/06/27 07:38:02;;;;;;;10.57;2.95;;;;;;;19.18;65.97;101991.69;5022015;28;20175;-63
2023/06/27 07:40:27;;;;;;;7.97;2.60;;;;;;;19.25;65.22;101994.41;5026000;28;20051;-63
2023/06/27 07:42:53;;;;;;;8.98;2.63;;;;;;;19.34;65.03;102003.13;5027114;28;20018;-64
2023/06/27 07:45:18;;;;;;;11.90;2.90;;;;;;;19.36;64.71;101999.22;5021112;28;20021;-63
2023/06/27 07:47:43;;;;;;;8.52;2.17;;;;;;;19.41;64.12;101994.06;5024484;28;20021;-63
2023/06/27 07:50:09;;;;;;;7.72;2.42;;;;;;;19.45;63.63;102000.72;5023308;28;20024;-63
2023/06/27 07:52:35;;;;;;;8.13;2.45;;;;;;;19.48;63.55;101992.22;5031129;28;20036;-63
2023/06/27 07:55:00;;;;;;;5.78;2.10;;;;;;;19.49;63.45;101993.91;5028813;28;20032;-63
2023/06/27 07:57:26;;;;;;;7.80;2.20;;;;;;;19.46;63.20;101991.59;5023236;28;20041;-63
2023/06/27 07:59:51;;;;;;;8.55;2.30;;;;;;;19.50;63.36;101992.88;5023007;28;20479;-63
2023/06/27 08:02:16;;;;;;;8.23;2.50;;;;;;;19.59;63.57;101990.00;5026960;28;20024;-63
2023/06/27 08:04:43;;;;;;;9.75;2.40;;;;;;;19.75;63.64;101993.19;5029452;28;20063;-63
2023/06/27 08:07:09;;;;;;;8.75;2.70;;;;;;;19.78;62.89;101989.25;5026425;28;20014;-63
2023/06/27 08:09:34;;;;;;;8.77;2.75;;;;;;;19.83;62.50;101994.88;5026780;28;20030;-63
2023/06/27 08:11:59;;;;;;;7.93;2.00;;;;;;;19.89;62.17;101994.03;5027343;28;20025;-63
2023/06/27 08:14:26;;;;;;;5.25;2.00;;;;;;;19.93;60.87;101992.59;5028673;28;20025;-61
2023/06/27 08:16:51;;;;;;;8.00;1.95;;;;;;;19.93;59.68;101979.13;5025120;28;20040;-60
2023/06/27 08:19:16;;;;;;;5.35;1.75;;;;;;;19.96;59.76;101978.72;5020401;28;20026;-61
2023/06/27 08:21:41;;;;;;;8.95;1.95;;;;;;;19.92;59.85;101977.44;5023237;28;20052;-61
2023/06/27 08:24:07;;;;;;;6.38;1.85;;;;;;;19.96;59.97;101981.44;5026400;28;20092;-61
2023/06/27 08:26:32;;;;;;;6.78;2.17;;;;;;;19.95;59.86;101990.56;5029256;28;20033;-61
2023/06/27 08:28:57;;;;;;;8.40;2.00;;;;;;;19.97;60.26;101983.09;5023558;28;20021;-61
2023/06/27 08:31:22;;;;;;;9.38;2.25;;;;;;;19.99;60.48;101986.41;5028456;28;20033;-61
2023/06/27 08:33:48;;;;;;;7.43;2.33;;;;;;;19.98;60.17;101982.06;5033881;28;20372;-60
2023/06/27 08:36:13;;;;;;;11.48;3.47;;;;;;;19.98;60.24;101979.34;5022167;28;20045;-60
2023/06/27 08:38:38;;;;;;;9.02;2.45;;;;;;;20.00;59.71;101982.69;5028830;28;20087;-61
2023/06/27 08:41:04;;;;;;;7.25;2.30;;;;;;;19.95;60.07;101985.16;5027501;28;20056;-61
2023/06/27 08:43:29;;;;;;;8.90;2.33;;;;;;;19.87;60.21;101987.19;5024522;28;20036;-60
2023/06/27 08:45:55;;;;;;;6.15;2.28;;;;;;;19.82;60.68;101981.59;5027881;28;20032;-61
2023/06/27 08:48:21;;;;;;;10.80;2.65;;;;;;;19.82;61.21;101986.97;5022733;28;20533;-61
2023/06/27 08:50:53;;;;;;;9.02;2.35;;;;;;;19.79;61.54;101990.91;5023722;28;20029;-60
2023/06/27 08:53:21;;;;;;;7.95;2.40;;;;;;;19.78;61.79;101992.78;5023968;28;20025;-61
2023/06/27 08:55:56;;;;;;;7.83;2.77;;;;;;;19.82;61.12;101995.06;5023959;28;20032;-61
2023/06/27 08:58:27;;;;;;;6.95;2.50;;;;;;;19.86;60.95;101989.06;5028870;28;20362;-61
2023/06/27 09:00:53;;;;;;;6.88;2.50;;;;;;;19.91;60.89;101973.09;5019358;28;20014;-61
2023/06/27 09:03:19;;;;;;;6.65;2.53;;;;;;;19.99;60.89;101974.78;5021201;28;20026;-61
2023/06/27 09:05:47;;;;;;;7.82;2.40;;;;;;;19.98;60.85;101976.66;5026175;28;20053;-60
2023/06/27 09:08:12;;;;;;;8.30;2.33;;;;;;;20.02;60.77;101974.38;5025688;28;20087;-60
2023/06/27 09:10:39;;;;;;;7.80;2.15;;;;;;;20.05;60.27;101982.88;5025924;28;20029;-60
2023/06/27 09:13:04;;;;;;;5.65;1.60;;;;;;;20.09;59.06;101983.31;5027326;28;20033;-60
2023/06/27 09:15:29;;;;;;;5.05;1.35;;;;;;;20.06;56.23;101987.25;5025898;28;21890;-60
2023/06/27 09:17:54;;;;;;;3.47;1.20;;;;;;;20.02;54.68;101994.09;5020792;28;20022;-60
2023/06/27 09:20:20;;;;;;;3.92;1.25;;;;;;;20.03;54.32;101984.97;5022656;28;20057;-61
2023/06/27 09:22:45;;;;;;;3.05;1.30;;;;;;;20.07;54.00;101986.22;5025732;28;20065;-60
2023/06/27 09:25:20;;;;;;;3.38;1.30;;;;;;;20.16;52.81;101986.00;5027979;28;20605;-61
2023/06/27 09:27:46;;;;;;;4.00;1.40;;;;;;;20.31;53.46;101989.34;5028145;28;20578;-60
2023/06/27 09:30:12;;;;;;;3.75;0.93;;;;;;;20.39;53.01;101981.03;5020655;28;20159;-61
2023/06/27 09:32:56;;;;;;;4.10;1.40;;;;;;;20.51;51.95;101990.19;5025827;28;20806;-60
2023/06/27 09:35:22;;;;;;;4.80;1.20;;;;;;;20.50;51.43;101993.09;5025721;28;20455;-60
2023/06/27 09:37:47;;;;;;;4.72;1.10;;;;;;;20.42;50.62;101986.88;5025192;28;20495;-60
2023/06/27 09:40:27;;;;;;;3.88;1.20;;;;;;;20.44;50.46;101993.94;5024943;28;20120;-60
2023/06/27 09:42:55;;;;;;;5.90;1.17;;;;;;;20.47;50.00;101999.75;5021786;28;20075;-61
2023/06/27 09:45:23;;;;;;;3.80;1.10;;;;;;;20.46;49.91;102008.88;5008537;28;20031;-62
2023/06/27 09:47:51;;;;;;;4.00;1.23;;;;;;;20.47;49.06;102009.72;5021143;28;20108;-62
2023/06/27 09:50:17;;;;;;;5.55;1.20;;;;;;;20.42;48.97;101999.53;5019703;28;20510;-61
2023/06/27 09:52:52;;;;;;;5.68;1.23;;;;;;;20.45;50.03;101999.13;5023252;28;20036;-62
2023/06/27 09:55:19;;;;;;;6.07;1.70;;;;;;;20.49;50.42;102003.06;5019820;28;20041;-62
2023/06/27 09:57:44;;;;;;;5.00;1.10;;;;;;;20.52;50.67;102002.66;5024488;28;20032;-62
2023/06/27 10:00:11;;;;;;;3.13;1.38;;;;;;;20.52;50.65;102002.66;5015134;28;20499;-61
2023/06/27 10:02:37;;;;;;;5.10;1.30;;;;;;;20.49;50.31;101999.53;5021858;28;20045;-62
2023/06/27 10:05:03;;;;;;;5.38;1.67;;;;;;;20.44;50.48;101994.75;5023063;28;20380;-62
2023/06/27 10:07:30;;;;;;;4.70;1.35;;;;;;;20.46;50.83;101992.69;5016461;28;20037;-64
2023/06/27 10:09:55;;;;;;;5.18;1.30;;;;;;;20.63;51.13;101996.63;5020176;28;20033;-65
2023/06/27 10:12:21;;;;;;;5.18;1.40;;;;;;;20.88;51.05;102002.22;5026372;28;20119;-64
2023/06/27 10:14:48;;;;;;;5.38;1.40;;;;;;;20.93;50.53;101999.72;5022643;28;20030;-64
2023/06/27 10:17:18;;;;;;;5.97;1.10;;;;;;;20.84;50.17;101994.75;5026572;28;20139;-65
2023/06/27 10:19:45;;;;;;;3.67;1.17;;;;;;;20.91;51.26;102006.38;5029625;28;20026;-64
2023/06/27 10:22:14;;;;;;;4.45;1.40;;;;;;;21.01;50.35;102002.19;5025309;28;20511;-64
2023/06/27 10:24:41;;;;;;;3.72;1.13;;;;;;;21.17;50.29;102000.06;5027391;28;20026;-64
2023/06/27 10:27:09;;;;;;;6.43;1.40;;;;;;;21.48;50.07;102002.06;5025739;28;20428;-65
2023/06/27 10:29:42;;;;;;;5.35;1.38;;;;;;;21.68;49.16;102004.66;5024274;28;20073;-64
2023/06/27 10:32:14;;;;;;;3.20;1.25;;;;;;;21.94;49.39;102008.06;5015837;28;20075;-64
2023/06/27 10:34:41;;;;;;;3.03;1.25;;;;;;;22.04;48.93;101995.97;5022165;28;20426;-65
2023/06/27 10:37:10;;;;;;;3.00;1.33;;;;;;;22.08;48.33;101994.50;5024967;28;20036;-65
2023/06/27 10:39:37;;;;;;;6.15;1.40;;;;;;;22.20;47.67;101992.72;5023433;28;20486;-64
2023/06/27 10:42:06;;;;;;;9.32;1.40;;;;;;;22.21;47.16;101995.22;5025512;28;20899;-65
2023/06/27 10:44:49;;;;;;;5.30;1.40;;;;;;;22.18;48.20;101992.13;5026494;28;20014;-64
2023/06/27 10:47:14;;;;;;;4.65;2.00;;;;;;;22.17;47.97;101993.16;5021611;28;20021;-64
2023/06/27 10:49:40;;;;;;;4.50;1.60;;;;;;;22.20;48.25;101985.44;5019972;28;20029;-64
2023/06/27 10:52:05;;;;;;;5.35;1.40;;;;;;;22.27;48.30;101985.41;5023949;28;20372;-65
2023/06/27 10:54:30;;;;;;;7.88;1.77;;;;;;;22.46;48.24;101979.00;5022302;28;20121;-64
2023/06/27 10:56:59;;;;;;;4.55;1.80;;;;;;;22.29;48.02;101986.03;5024035;28;20026;-64
2023/06/27 10:59:24;;;;;;;7.82;1.70;;;;;;;22.28;48.36;101980.84;5022339;28;20027;-64
2023/06/27 11:01:58;;;;;;;5.25;1.65;;;;;;;22.39;48.10;101983.63;5026495;28;20025;-64
2023/06/27 11:04:25;;;;;;;3.15;1.35;;;;;;;22.39;48.11;101996.34;5021660;28;20049;-64
2023/06/27 11:06:59;;;;;;;4.45;1.33;;;;;;;22.18;46.85;101987.53;5025340;28;20021;-64
2023/06/27 11:09:24;;;;;;;5.70;1.55;;;;;;;21.90;47.30;101984.38;5024484;28;20035;-64
2023/06/27 11:12:11;;;;;;;4.25;1.67;;;;;;;21.74;47.75;101979.50;5024315;28;20041;-65
2023/06/27 11:14:43;;;;;;;3.33;1.58;;;;;;;21.87;48.01;101984.81;5025717;28;20029;-64
2023/06/27 11:17:10;;;;;;;5.15;1.50;;;;;;;22.14;46.94;101977.38;5023207;28;20053;-65